Accueil
METAR-TAF:

METAR-TAF

Aéroports :

Luxembourg, Luxembourg

Aéroport de Luxembourg-Findel

latitude: 49-37N, longitude: 006-13E, altitude: 376 m

Observation

Le bulletin a été fait il y a 18 minutes, à 19:20 UTC
Vent 6 kt de nord/nord-ouest
Température 18°C
Humidité 68%
Pression 1024 hPa
Visibilité 10 km ou plus
pas de nuages en-dessous de 1500 mètres et pas de cumulonimbus.

METAR: ELLX 241920Z 34006KT CAVOK 18/12 Q1024 NOSIG

Heure: 21:38 (19:38 UTC)

Prévision

Le bulletin a été fait il y a 2 heures et 38 minutes, à 17:00 UTC
Prévision valable du 24 à 18 UTC au 25 à 24 UTC
Vent 7 kt de nord/nord-ouest
Visibilité 10 km ou plus
Quelques nuages à une hauteur de 4500 ft
Evoluant progressivement
du 25 à 04 UTC au 25 à 07 UTC
Vent 10 kt de nord-est

TAF: ELLX 241700Z 2418/2524 33007KT 9999 FEW045 BECMG 2504/2507 05010KT

Observations et prévisions météorologiques de plus de 4000 aéroports (messages METAR et TAF).

Les stations disponibles sont représentées par des disques jaunes et rouges sur la carte.

Passer la souris dessus pour voir le nom de la station.

Cliquer dessus pour voir les observations et prévisions météorologiques.

Pour changer de carte: cliquez sur les boutons verts avec une croix noire pour zoomer, sur le bouton vert avec un tiret pour effectuer un zoom arrière, ou sur les flèches vertes pour les cartes adjacentes.


METAR-TAF: